Time;durP1;ratioP1;P1;durP2;ratioP2;P2;SDS_P1;SDS_P2;PMS_P1;PMS_P2;Temp;Humidity;BMP_temperature;BMP_pressure;BME280_temperature;BME280_humidity;BME280_pressure;Samples;Min_cycle;Max_cycle;Signal;HPM_P1;HPM_P2
2022/12/20 00:00:50;;;;;;;13.30;6.47;;;;;;;1.19;100.00;100785.19;5013160;28;20454;-53
2022/12/20 00:03:17;;;;;;;22.43;6.57;;;;;;;1.15;100.00;100776.41;5008495;28;20451;-53
2022/12/20 00:05:43;;;;;;;5.60;5.10;;;;;;;1.18;100.00;100780.81;5022928;28;20448;-54
2022/12/20 00:08:10;;;;;;;15.97;6.13;;;;;;;1.16;100.00;100777.28;5018136;28;20467;-53
2022/12/20 00:10:38;;;;;;;4.40;4.20;;;;;;;1.14;100.00;100782.50;5023211;28;20882;-53
2022/12/20 00:13:05;;;;;;;13.70;3.10;;;;;;;1.13;100.00;100777.25;5019127;28;20448;-53
2022/12/20 00:15:32;;;;;;;17.73;5.70;;;;;;;1.13;100.00;100774.63;5043892;28;20482;-53
2022/12/20 00:17:59;;;;;;;5.90;5.37;;;;;;;1.18;100.00;100781.69;5032688;28;20456;-53
2022/12/20 00:20:27;;;;;;;14.83;6.80;;;;;;;1.14;100.00;100776.38;5021217;28;20453;-53
2022/12/20 00:22:53;;;;;;;7.17;3.83;;;;;;;1.22;100.00;100773.88;5005964;28;20452;-53
2022/12/20 00:25:20;;;;;;;9.13;8.17;;;;;;;0.98;100.00;100771.75;5020354;28;20446;-53
2022/12/20 00:27:48;;;;;;;8.27;5.20;;;;;;;1.01;100.00;100758.72;5028151;28;20954;-54
2022/12/20 00:30:14;;;;;;;13.40;7.07;;;;;;;0.94;100.00;100755.09;5020410;28;20473;-53
2022/12/20 00:32:42;;;;;;;10.27;5.47;;;;;;;0.92;100.00;100753.28;5025880;28;20551;-53
2022/12/20 00:35:08;;;;;;;8.80;7.83;;;;;;;1.05;100.00;100757.91;5024808;28;20506;-54
2022/12/20 00:37:35;;;;;;;26.43;6.23;;;;;;;1.05;100.00;100758.78;5022491;28;20955;-53
2022/12/20 00:40:03;;;;;;;8.27;7.57;;;;;;;1.07;100.00;100756.19;5020058;28;20476;-54
2022/12/20 00:42:30;;;;;;;5.27;4.87;;;;;;;1.12;100.00;100765.00;5026023;28;20459;-56
2022/12/20 00:44:57;;;;;;;7.37;6.23;;;;;;;1.15;100.00;100757.22;5024997;28;20446;-56
2022/12/20 00:47:23;;;;;;;15.43;5.07;;;;;;;1.17;100.00;100756.38;5019232;28;20459;-56
2022/12/20 00:49:49;;;;;;;13.20;5.67;;;;;;;1.14;100.00;100761.56;5019157;28;21020;-56
2022/12/20 00:52:16;;;;;;;8.87;5.40;;;;;;;1.18;100.00;100754.63;5027766;28;20478;-56
2022/12/20 00:54:42;;;;;;;4.70;4.40;;;;;;;1.21;100.00;100751.19;5031878;28;20497;-53
2022/12/20 00:57:09;;;;;;;13.20;4.33;;;;;;;1.18;100.00;100745.03;5019114;28;20450;-54
2022/12/20 00:59:35;;;;;;;14.17;4.33;;;;;;;1.11;100.00;100740.56;5019145;28;20472;-54
2022/12/20 01:02:02;;;;;;;9.33;5.37;;;;;;;1.09;100.00;100749.22;5025813;28;20478;-53
2022/12/20 01:04:28;;;;;;;9.47;4.87;;;;;;;1.19;100.00;100751.16;5024995;28;21043;-52
2022/12/20 01:06:55;;;;;;;19.37;5.30;;;;;;;1.22;100.00;100750.31;5022087;28;20447;-54
2022/12/20 01:09:21;;;;;;;10.20;5.57;;;;;;;1.33;100.00;100761.84;5022282;28;20476;-53
2022/12/20 01:11:48;;;;;;;10.97;5.87;;;;;;;1.27;100.00;100767.88;5029361;28;20458;-53
2022/12/20 01:14:14;;;;;;;18.30;7.30;;;;;;;1.39;100.00;100760.22;5028942;28;20820;-56
2022/12/20 01:16:43;;;;;;;24.00;6.97;;;;;;;1.33;100.00;100759.25;5035320;28;20451;-55
2022/12/20 01:19:12;;;;;;;10.90;7.90;;;;;;;1.44;100.00;100770.78;5034561;28;20474;-56
2022/12/20 01:21:43;;;;;;;11.13;3.10;;;;;;;1.45;100.00;100765.56;5016435;28;20449;-53
2022/12/20 01:24:11;;;;;;;6.70;6.20;;;;;;;1.45;100.00;100760.31;5031461;28;20447;-51
2022/12/20 01:26:38;;;;;;;6.37;5.47;;;;;;;1.39;100.00;100756.72;5024569;28;20957;-53
2022/12/20 01:29:04;;;;;;;10.20;4.67;;;;;;;1.36;100.00;100759.28;5029731;28;20471;-53
2022/12/20 01:31:31;;;;;;;11.87;7.73;;;;;;;1.35;100.00;100749.66;5023571;28;20452;-53
2022/12/20 01:33:59;;;;;;;6.90;6.50;;;;;;;1.33;100.00;100740.91;5028700;28;20443;-53
2022/12/20 01:36:30;;;;;;;12.17;4.60;;;;;;;1.32;100.00;100731.28;5024772;28;20529;-54
2022/12/20 01:38:58;;;;;;;5.10;4.67;;;;;;;1.36;100.00;100739.22;5026195;28;20488;-53
2022/12/20 01:41:26;;;;;;;10.83;3.00;;;;;;;1.34;100.00;100732.19;5025831;28;20447;-54
2022/12/20 01:43:59;;;;;;;4.87;4.43;;;;;;;1.36;100.00;100728.75;5021878;28;20462;-54
2022/12/20 01:46:28;;;;;;;11.30;3.87;;;;;;;1.31;100.00;100719.06;5023220;28;20456;-54
2022/12/20 01:49:09;;;;;;;10.93;6.80;;;;;;;1.35;100.00;100713.88;5033126;28;20816;-52
2022/12/20 01:51:43;;;;;;;7.43;4.80;;;;;;;1.34;100.00;100719.97;5029407;28;20456;-53
2022/12/20 01:54:20;;;;;;;5.87;5.43;;;;;;;1.33;100.00;100719.97;5032761;28;20444;-52
2022/12/20 01:56:50;;;;;;;13.13;4.87;;;;;;;1.28;100.00;100708.53;5021479;28;20495;-54
2022/12/20 01:59:18;;;;;;;20.93;4.57;;;;;;;1.31;100.00;100716.44;5025743;28;20516;-54
2022/12/20 02:01:44;;;;;;;27.37;5.87;;;;;;;1.33;100.00;100709.50;5021677;28;20451;-54
2022/12/20 02:04:11;;;;;;;8.40;4.60;;;;;;;1.36;100.00;100718.25;5025026;28;20449;-53
2022/12/20 02:06:38;;;;;;;9.60;6.53;;;;;;;1.48;100.00;100718.44;5021343;28;20448;-54
2022/12/20 02:09:07;;;;;;;15.43;5.50;;;;;;;1.36;100.00;100701.66;5023945;28;20555;-54
2022/12/20 02:11:46;;;;;;;28.07;6.00;;;;;;;1.29;100.00;100700.72;5027894;28;20454;-52
2022/12/20 02:14:27;;;;;;;5.63;5.23;;;;;;;1.24;100.00;100691.91;5026448;28;20451;-53
2022/12/20 02:17:06;;;;;;;14.40;7.57;;;;;;;1.29;100.00;100694.59;5044036;28;20492;-53
2022/12/20 02:20:00;;;;;;;4.33;2.87;;;;;;;1.33;100.00;100675.44;5003842;28;20832;-54
2022/12/20 02:22:54;;;;;;;5.40;4.33;;;;;;;1.31;100.00;100671.94;5033458;28;20443;-53
2022/12/20 02:25:42;;;;;;;7.63;4.73;;;;;;;1.31;100.00;100671.94;5032851;28;20506;-53
2022/12/20 02:28:26;;;;;;;9.47;4.80;;;;;;;1.32;100.00;100665.84;5022782;28;20454;-53
2022/12/20 02:30:55;;;;;;;4.40;4.00;;;;;;;1.42;100.00;100675.59;5020986;28;20498;-53
2022/12/20 02:33:25;;;;;;;6.90;6.20;;;;;;;1.42;100.00;100668.63;5022569;28;20464;-48
2022/12/20 02:35:52;;;;;;;19.63;4.43;;;;;;;1.51;100.00;100674.81;5027006;28;20974;-48
2022/12/20 02:38:36;;;;;;;16.53;6.80;;;;;;;1.47;100.00;100653.84;5025870;28;20488;-49
2022/12/20 02:41:18;;;;;;;8.03;5.73;;;;;;;1.46;100.00;100641.59;5033803;28;20496;-52
2022/12/20 02:46:35;;;;;;;17.90;6.97;;;;;;;1.39;100.00;100647.63;5020808;28;20487;-49
2022/12/20 02:49:07;;;;;;;7.20;5.67;;;;;;;1.46;100.00;100646.84;5027113;28;20572;-48
2022/12/20 02:51:33;;;;;;;20.20;7.57;;;;;;;1.71;100.00;100641.94;5027315;28;20474;-49
2022/12/20 02:54:00;;;;;;;12.60;5.27;;;;;;;1.51;100.00;100644.31;5022854;28;20453;-50
2022/12/20 02:56:36;;;;;;;25.23;4.40;;;;;;;1.48;100.00;100652.97;5018904;28;20599;-48
2022/12/20 02:59:20;;;;;;;7.10;6.20;;;;;;;1.38;100.00;100645.88;5024769;28;20473;-49
2022/12/20 03:01:53;;;;;;;16.97;6.77;;;;;;;1.37;100.00;100657.22;5026728;28;20448;-48
2022/12/20 03:04:25;;;;;;;20.57;7.23;;;;;;;1.61;100.00;100661.88;5026276;28;20457;-48
2022/12/20 03:07:07;;;;;;;7.43;5.00;;;;;;;1.72;100.00;100652.44;5020748;28;20440;-48
2022/12/20 03:09:37;;;;;;;6.23;5.70;;;;;;;1.69;100.00;100656.75;5027199;28;20475;-48
2022/12/20 03:12:04;;;;;;;5.77;5.27;;;;;;;1.59;100.00;100649.63;5023409;28;20447;-48
2022/12/20 03:14:31;;;;;;;11.70;6.87;;;;;;;1.57;100.00;100644.38;5025528;28;20865;-48
2022/12/20 03:16:57;;;;;;;9.23;4.93;;;;;;;1.44;100.00;100635.47;5033063;28;21009;-49
2022/12/20 03:19:24;;;;;;;6.10;4.43;;;;;;;1.52;100.00;100640.81;5019762;28;20537;-49
2022/12/20 03:21:50;;;;;;;8.73;4.33;;;;;;;1.53;100.00;100631.22;5032583;28;20451;-49
2022/12/20 03:24:17;;;;;;;14.90;6.20;;;;;;;1.54;100.00;100623.38;5032045;28;20452;-48
2022/12/20 03:26:44;;;;;;;7.40;5.17;;;;;;;1.57;100.00;100610.31;5023531;28;20548;-49
2022/12/20 03:29:10;;;;;;;5.00;3.70;;;;;;;1.51;100.00;100611.97;5026144;28;20468;-48
2022/12/20 03:31:37;;;;;;;7.27;5.17;;;;;;;1.45;100.00;100602.28;5022929;28;20729;-49
2022/12/20 03:34:03;;;;;;;23.73;5.43;;;;;;;1.46;100.00;100607.56;5019673;28;20458;-48
2022/12/20 03:36:30;;;;;;;5.83;5.27;;;;;;;1.54;100.00;100619.88;5023041;28;20488;-48
2022/12/20 03:38:56;;;;;;;23.17;5.73;;;;;;;1.59;100.00;100632.16;5025851;28;20488;-48
2022/12/20 03:41:23;;;;;;;5.57;4.67;;;;;;;1.59;100.00;100639.16;5022714;28;20453;-48
2022/12/20 03:43:51;;;;;;;16.37;5.80;;;;;;;1.62;100.00;100633.94;5019707;28;20452;-49
2022/12/20 03:46:18;;;;;;;2.30;2.20;;;;;;;1.62;100.00;100633.94;5022203;28;20548;-49
2022/12/20 03:48:45;;;;;;;5.33;3.43;;;;;;;1.82;100.00;100645.56;5026014;28;20502;-48
2022/12/20 03:51:12;;;;;;;6.40;5.70;;;;;;;1.71;100.00;100636.69;5023118;28;20447;-48
2022/12/20 03:53:38;;;;;;;5.27;3.73;;;;;;;1.89;100.00;100636.03;5028642;28;20498;-50
2022/12/20 03:56:05;;;;;;;9.27;6.73;;;;;;;1.87;100.00;100638.63;5021740;28;20488;-49
2022/12/20 03:58:31;;;;;;;10.03;4.53;;;;;;;1.75;100.00;100639.38;5025885;28;20571;-48
2022/12/20 04:00:58;;;;;;;8.00;7.53;;;;;;;1.72;100.00;100626.22;5024085;28;20538;-50
2022/12/20 04:03:24;;;;;;;11.20;4.10;;;;;;;1.68;100.00;100631.41;5019878;28;20468;-48
2022/12/20 04:05:50;;;;;;;5.00;4.37;;;;;;;1.64;100.00;100632.22;5016133;28;20479;-48
2022/12/20 04:08:17;;;;;;;6.20;5.33;;;;;;;1.63;100.00;100623.47;5025692;28;20476;-48
2022/12/20 04:13:28;;;;;;;12.90;5.83;;;;;;;1.59;100.00;100619.06;5020460;28;20447;-49
2022/12/20 04:15:54;;;;;;;3.23;3.03;;;;;;;1.52;100.00;100625.09;5045413;28;20498;-49
2022/12/20 04:18:26;;;;;;;6.30;5.67;;;;;;;1.56;100.00;100607.69;5023732;28;20816;-48
2022/12/20 04:20:53;;;;;;;5.83;3.40;;;;;;;1.47;100.00;100598.84;5026452;28;20486;-48
2022/12/20 04:23:19;;;;;;;5.50;5.10;;;;;;;1.57;100.00;100588.47;5031740;28;20452;-48
2022/12/20 04:25:45;;;;;;;12.70;8.73;;;;;;;1.54;100.00;100583.22;5028618;28;20447;-48
2022/12/20 04:28:12;;;;;;;9.23;4.67;;;;;;;1.63;100.00;100583.31;5021159;28;20451;-49
2022/12/20 04:30:38;;;;;;;26.03;6.53;;;;;;;1.61;100.00;100579.78;5018292;28;20821;-49
2022/12/20 04:33:05;;;;;;;9.00;7.53;;;;;;;1.64;100.00;100603.41;5021149;28;20470;-49
2022/12/20 04:35:31;;;;;;;8.43;2.97;;;;;;;1.69;100.00;100610.47;5026003;28;20484;-49
2022/12/20 04:37:58;;;;;;;7.13;6.43;;;;;;;1.80;100.00;100622.84;5020749;28;20479;-50
2022/12/20 04:40:24;;;;;;;7.10;6.40;;;;;;;1.80;100.00;100626.34;5020242;28;20534;-49
2022/12/20 04:42:51;;;;;;;3.67;3.47;;;;;;;1.74;100.00;100618.38;5030399;28;20971;-49
2022/12/20 04:45:17;;;;;;;5.73;4.00;;;;;;;1.74;100.00;100614.03;5027561;28;20457;-49
2022/12/20 04:47:43;;;;;;;11.23;7.30;;;;;;;1.71;100.00;100613.13;5025323;28;20451;-48
2022/12/20 04:50:10;;;;;;;9.33;6.03;;;;;;;1.70;100.00;100604.38;5022441;28;20475;-48
2022/12/20 04:55:21;;;;;;;12.13;6.93;;;;;;;1.68;100.00;100586.88;5030361;28;20984;-49
2022/12/20 04:57:48;;;;;;;11.80;6.30;;;;;;;1.63;100.00;100578.94;5027701;28;20451;-50
2022/12/20 05:00:15;;;;;;;21.53;5.90;;;;;;;1.56;100.00;100579.75;5029033;28;20499;-49
2022/12/20 05:02:42;;;;;;;8.90;5.70;;;;;;;1.65;100.00;100581.63;5027849;28;20456;-49
2022/12/20 05:05:09;;;;;;;9.90;6.67;;;;;;;1.69;100.00;100586.03;5019773;28;20452;-49
2022/12/20 05:07:35;;;;;;;5.33;5.10;;;;;;;1.73;100.00;100586.06;5027209;28;20456;-48
2022/12/20 05:10:02;;;;;;;7.83;6.53;;;;;;;1.89;100.00;100594.09;5021297;28;20472;-49
2022/12/20 05:12:29;;;;;;;12.47;5.77;;;;;;;1.79;100.00;100601.00;5023479;28;20542;-49
2022/12/20 05:14:55;;;;;;;4.20;3.03;;;;;;;1.74;100.00;100586.94;5034163;28;20972;-49
2022/12/20 05:17:22;;;;;;;3.83;3.60;;;;;;;1.44;100.00;100574.34;5034441;28;20490;-51
2022/12/20 05:19:48;;;;;;;9.33;5.07;;;;;;;1.48;100.00;100571.78;5022540;28;20498;-49
2022/12/20 05:27:44;;;;;;;7.23;6.70;;;;;;;1.77;100.00;100574.75;5028631;28;20448;-48
2022/12/20 05:30:11;;;;;;;8.80;4.77;;;;;;;1.77;100.00;100576.50;5027140;28;20463;-49
2022/12/20 05:32:38;;;;;;;16.00;4.70;;;;;;;1.78;100.00;100565.13;5017716;28;20448;-49
2022/12/20 05:35:04;;;;;;;10.47;4.37;;;;;;;1.70;100.00;100558.97;5027042;28;20830;-49
2022/12/20 05:37:30;;;;;;;4.80;4.50;;;;;;;1.65;100.00;100556.28;5021388;28;20487;-48
2022/12/20 05:39:57;;;;;;;19.17;8.00;;;;;;;1.60;100.00;100543.97;5023116;28;20484;-49
2022/12/20 05:42:23;;;;;;;3.33;3.13;;;;;;;1.66;100.00;100530.97;5028336;28;20455;-53
2022/12/20 05:44:50;;;;;;;8.17;5.23;;;;;;;1.57;100.00;100538.72;5027191;28;20471;-50
2022/12/20 05:47:16;;;;;;;8.03;5.03;;;;;;;1.86;100.00;100544.28;5021540;28;20944;-50
2022/12/20 05:49:43;;;;;;;7.83;6.10;;;;;;;1.87;100.00;100544.28;5023040;28;20977;-49
2022/12/20 05:52:09;;;;;;;26.10;5.50;;;;;;;1.86;100.00;100549.53;5029420;28;20954;-50
2022/12/20 05:54:36;;;;;;;9.10;2.87;;;;;;;1.88;100.00;100559.16;5034679;28;20455;-50
2022/12/20 05:57:02;;;;;;;3.70;3.50;;;;;;;1.87;100.00;100561.75;5022086;28;20495;-50
2022/12/20 05:59:29;;;;;;;6.47;5.83;;;;;;;1.87;100.00;100551.28;5022540;28;20472;-49
2022/12/20 06:01:55;;;;;;;11.43;5.47;;;;;;;1.86;100.00;100550.41;5028163;28;20455;-50
2022/12/20 06:04:22;;;;;;;12.53;4.43;;;;;;;1.85;100.00;100558.25;5027480;28;20455;-51
2022/12/20 06:06:48;;;;;;;10.37;7.63;;;;;;;1.78;100.00;100539.84;5021373;28;20498;-50
2022/12/20 06:09:15;;;;;;;6.50;4.80;;;;;;;1.72;100.00;100534.53;5021683;28;20993;-50
2022/12/20 06:11:41;;;;;;;3.87;3.13;;;;;;;1.77;100.00;100539.81;5027915;28;20467;-50
2022/12/20 06:14:08;;;;;;;5.87;5.27;;;;;;;1.81;100.00;100533.75;5028008;28;20459;-50
2022/12/20 06:16:35;;;;;;;26.73;7.50;;;;;;;1.81;100.00;100538.13;5021588;28;20578;-50
2022/12/20 06:19:01;;;;;;;5.57;5.07;;;;;;;1.86;100.00;100547.78;5021183;28;20560;-50
2022/12/20 06:21:28;;;;;;;5.27;4.80;;;;;;;1.82;100.00;100548.63;5033330;28;20455;-51
2022/12/20 06:23:55;;;;;;;3.13;2.67;;;;;;;1.86;100.00;100555.63;5034433;28;20451;-50
2022/12/20 06:26:22;;;;;;;5.23;4.90;;;;;;;1.83;100.00;100544.25;5021854;28;20455;-51
2022/12/20 06:28:53;;;;;;;13.27;6.27;;;;;;;1.90;100.00;100551.31;5003355;28;20476;-50
2022/12/20 06:31:19;;;;;;;17.07;4.73;;;;;;;1.94;100.00;100550.50;5027081;28;20487;-50
2022/12/20 06:33:46;;;;;;;21.83;5.97;;;;;;;1.93;100.00;100549.63;5027746;28;20451;-50
2022/12/20 06:36:12;;;;;;;7.47;6.87;;;;;;;1.96;100.00;100549.63;5021960;28;20546;-51
2022/12/20 06:38:38;;;;;;;4.43;4.13;;;;;;;1.96;100.00;100552.25;5033081;28;20490;-50
2022/12/20 06:41:05;;;;;;;7.87;6.13;;;;;;;2.07;100.00;100555.00;5022274;28;20455;-50
2022/12/20 06:43:31;;;;;;;8.87;4.40;;;;;;;2.07;100.00;100558.50;5020778;28;20452;-50
2022/12/20 06:45:58;;;;;;;3.87;3.67;;;;;;;2.07;100.00;100553.25;5026089;28;20946;-50
2022/12/20 06:48:24;;;;;;;6.00;4.40;;;;;;;2.15;100.00;100539.31;5027276;28;20471;-50
2022/12/20 06:50:51;;;;;;;4.40;4.00;;;;;;;2.12;100.00;100534.06;5023045;28;20444;-52
2022/12/20 06:53:21;;;;;;;8.83;5.80;;;;;;;2.03;100.00;100534.84;5029532;28;20490;-50
2022/12/20 06:55:50;;;;;;;16.53;6.17;;;;;;;2.01;100.00;100540.06;5024934;28;20467;-50
2022/12/20 06:58:18;;;;;;;6.33;4.40;;;;;;;2.02;100.00;100544.44;5029852;28;20927;-50
2022/12/20 07:00:45;;;;;;;14.13;6.80;;;;;;;1.96;100.00;100533.91;5024124;28;20449;-50
2022/12/20 07:03:12;;;;;;;8.40;4.03;;;;;;;1.93;100.00;100523.41;5027268;28;20452;-50
2022/12/20 07:05:39;;;;;;;4.57;4.20;;;;;;;1.95;100.00;100528.66;5023674;28;20960;-50
2022/12/20 07:08:06;;;;;;;7.00;4.67;;;;;;;1.97;100.00;100529.53;5019971;28;20447;-51
2022/12/20 07:10:34;;;;;;;16.47;5.03;;;;;;;1.93;100.00;100546.13;5023281;28;20452;-50
2022/12/20 07:13:00;;;;;;;8.80;6.20;;;;;;;1.98;100.00;100532.19;5026888;28;20483;-50
2022/12/20 07:15:27;;;;;;;5.80;4.73;;;;;;;1.91;100.00;100527.72;5040910;28;20442;-50
2022/12/20 07:17:53;;;;;;;9.10;5.90;;;;;;;1.90;100.00;100532.94;5031102;28;20488;-50
2022/12/20 07:20:20;;;;;;;8.37;6.60;;;;;;;1.87;100.00;100527.69;5024627;28;20554;-50
2022/12/20 07:22:47;;;;;;;11.83;5.53;;;;;;;1.89;100.00;100526.84;5031935;28;20452;-50
2022/12/20 07:25:13;;;;;;;9.10;3.20;;;;;;;1.89;100.00;100528.56;5022160;28;20452;-50
2022/12/20 07:27:40;;;;;;;14.87;6.57;;;;;;;1.93;100.00;100539.13;5026706;28;20475;-50
2022/12/20 07:30:07;;;;;;;7.20;6.50;;;;;;;1.95;100.00;100534.78;5024488;28;20559;-49
2022/12/20 07:32:33;;;;;;;8.57;6.20;;;;;;;1.89;100.00;100528.56;5019598;28;20454;-51
2022/12/20 07:35:00;;;;;;;14.37;7.10;;;;;;;1.87;100.00;100525.94;5021990;28;20448;-50
2022/12/20 07:37:28;;;;;;;18.67;6.70;;;;;;;1.94;100.00;100532.16;5026545;28;20527;-50
2022/12/20 07:39:55;;;;;;;10.27;5.80;;;;;;;1.97;100.00;100519.94;5024986;28;20554;-49
2022/12/20 07:42:21;;;;;;;13.83;4.23;;;;;;;2.00;100.00;100516.47;5019801;28;20448;-50
2022/12/20 07:44:48;;;;;;;26.33;5.73;;;;;;;1.96;100.00;100515.56;5020692;28;20495;-50
2022/12/20 07:47:14;;;;;;;3.87;3.63;;;;;;;1.83;100.00;100510.19;5026264;28;20449;-49
2022/12/20 07:49:41;;;;;;;22.23;6.67;;;;;;;1.92;100.00;100505.94;5025313;28;20558;-50
2022/12/20 07:52:11;;;;;;;12.10;5.40;;;;;;;1.98;100.00;100520.81;5019899;28;20451;-50
2022/12/20 07:54:44;;;;;;;4.80;4.43;;;;;;;2.06;100.00;100511.31;5032790;28;20454;-50
2022/12/20 07:57:18;;;;;;;7.07;6.77;;;;;;;2.03;100.00;100499.00;5025416;28;21089;-50
2022/12/20 07:59:53;;;;;;;4.90;4.40;;;;;;;2.04;100.00;100500.78;5026246;28;20486;-50
2022/12/20 08:02:26;;;;;;;24.97;8.00;;;;;;;2.01;100.00;100511.22;5022337;28;20451;-50
2022/12/20 08:04:54;;;;;;;4.40;3.03;;;;;;;2.09;100.00;100511.31;5019142;28;20443;-50
2022/12/20 08:07:21;;;;;;;4.13;3.83;;;;;;;2.16;100.00;100522.72;5022319;28;20444;-50
2022/12/20 08:09:47;;;;;;;11.13;5.40;;;;;;;2.15;100.00;100516.59;5025619;28;20479;-50
2022/12/20 08:12:16;;;;;;;5.03;4.57;;;;;;;2.16;100.00;100504.38;5023282;28;20615;-50
2022/12/20 08:14:43;;;;;;;4.57;4.17;;;;;;;2.16;100.00;100507.00;5029364;28;20447;-51
2022/12/20 08:17:10;;;;;;;11.30;5.47;;;;;;;2.15;100.00;100494.75;5040762;28;20498;-49
2022/12/20 08:19:37;;;;;;;14.17;7.20;;;;;;;2.17;100.00;100496.50;5019154;28;20478;-51
2022/12/20 08:22:05;;;;;;;5.43;4.80;;;;;;;2.23;100.00;100493.09;5031385;28;20459;-51
2022/12/20 08:24:33;;;;;;;3.23;3.00;;;;;;;2.21;100.00;100487.84;5027078;28;20449;-52
2022/12/20 08:26:59;;;;;;;7.33;6.87;;;;;;;2.20;100.00;100482.59;5025102;28;20542;-51
2022/12/20 08:29:26;;;;;;;3.10;2.90;;;;;;;2.16;100.00;100481.66;5019325;28;20467;-51
2022/12/20 08:31:52;;;;;;;6.63;5.53;;;;;;;2.18;100.00;100484.28;5020025;28;20981;-51
2022/12/20 08:34:19;;;;;;;12.80;6.20;;;;;;;2.12;100.00;100479.88;5025764;28;20539;-52
2022/12/20 08:36:45;;;;;;;6.77;4.20;;;;;;;2.16;100.00;100480.78;5024744;28;20491;-51
2022/12/20 08:39:11;;;;;;;8.30;5.27;;;;;;;2.16;100.00;100467.66;5018439;28;20557;-52
2022/12/20 08:41:38;;;;;;;9.33;4.77;;;;;;;2.18;100.00;100471.19;5020946;28;20543;-55
2022/12/20 08:44:05;;;;;;;7.40;5.53;;;;;;;2.21;100.00;100474.72;5026632;28;20453;-55
2022/12/20 08:46:32;;;;;;;4.57;4.33;;;;;;;2.24;100.00;100482.59;5026306;28;20451;-54
2022/12/20 08:48:58;;;;;;;7.93;7.53;;;;;;;2.30;100.00;100479.13;5020342;28;20478;-54
2022/12/20 08:51:25;;;;;;;6.40;5.73;;;;;;;2.35;100.00;100470.47;5020616;28;20444;-55
2022/12/20 08:53:51;;;;;;;5.53;4.97;;;;;;;2.53;100.00;100468.81;5033182;28;20518;-55
2022/12/20 08:56:18;;;;;;;11.37;8.77;;;;;;;2.40;100.00;100472.22;5020391;28;20540;-55
2022/12/20 08:58:45;;;;;;;13.70;5.17;;;;;;;2.44;100.00;100474.00;5020127;28;21091;-55
2022/12/20 09:01:14;;;;;;;9.70;4.47;;;;;;;2.40;100.00;100475.72;5019965;28;20449;-55
2022/12/20 09:03:42;;;;;;;9.93;6.30;;;;;;;2.40;100.00;100478.34;5026031;28;20453;-54
2022/12/20 09:06:15;;;;;;;9.93;6.90;;;;;;;2.42;100.00;100491.47;5026617;28;20813;-54
2022/12/20 09:08:42;;;;;;;12.20;6.53;;;;;;;2.44;100.00;100497.59;5022046;28;20820;-55
2022/12/20 09:11:14;;;;;;;12.03;8.20;;;;;;;2.45;100.00;100489.75;5019970;28;21042;-55
2022/12/20 09:13:43;;;;;;;7.47;6.77;;;;;;;2.41;100.00;100489.72;5026155;28;20551;-55
2022/12/20 09:16:15;;;;;;;19.10;5.33;;;;;;;2.34;100.00;100487.06;5033174;28;20451;-55
2022/12/20 09:18:42;;;;;;;8.10;7.33;;;;;;;2.41;100.00;100480.09;5022373;28;20499;-55
2022/12/20 09:21:10;;;;;;;8.43;6.20;;;;;;;2.49;100.00;100478.44;5030004;28;20494;-55
2022/12/20 09:23:37;;;;;;;8.40;5.13;;;;;;;2.49;100.00;100474.94;5033309;28;20463;-55
2022/12/20 09:26:06;;;;;;;10.53;5.50;;;;;;;2.54;100.00;100475.84;5020815;28;20452;-55
2022/12/20 09:28:33;;;;;;;8.10;4.73;;;;;;;2.50;100.00;100464.44;5025600;28;20516;-56
2022/12/20 09:31:01;;;;;;;12.70;7.73;;;;;;;2.50;100.00;100467.06;5030700;28;20456;-56
2022/12/20 09:33:29;;;;;;;12.60;7.10;;;;;;;2.51;100.00;100462.69;5028694;28;20452;-56
2022/12/20 09:35:57;;;;;;;5.53;5.03;;;;;;;2.55;100.00;100473.22;5023810;28;20538;-56
2022/12/20 09:38:24;;;;;;;5.37;4.87;;;;;;;2.57;100.00;100460.09;5024344;28;21032;-55
2022/12/20 09:40:54;;;;;;;16.90;6.37;;;;;;;2.71;100.00;100462.81;5030872;28;20448;-55
2022/12/20 09:43:21;;;;;;;7.03;4.97;;;;;;;2.69;100.00;100460.19;5017253;28;20926;-56
2022/12/20 09:45:52;;;;;;;4.43;4.03;;;;;;;2.70;100.00;100461.06;5030430;28;20475;-56
2022/12/20 09:48:24;;;;;;;15.33;6.83;;;;;;;2.72;100.00;100457.56;5029899;28;20464;-56
2022/12/20 09:50:51;;;;;;;6.53;4.97;;;;;;;2.68;100.00;100451.44;5024984;28;20485;-55
2022/12/20 09:53:27;;;;;;;6.50;3.73;;;;;;;2.72;100.00;100448.81;5032238;28;20960;-55
2022/12/20 09:56:04;;;;;;;9.37;5.17;;;;;;;2.65;100.00;100445.28;5009629;28;20455;-56
2022/12/20 09:58:57;;;;;;;11.23;4.13;;;;;;;2.75;100.00;100441.88;5029609;28;20595;-55
2022/12/20 10:01:27;;;;;;;32.27;6.40;;;;;;;2.79;100.00;100445.38;5029979;28;20938;-55
2022/12/20 10:04:11;;;;;;;26.53;10.50;;;;;;;2.75;100.00;100441.88;5026570;28;20827;-56
2022/12/20 10:06:46;;;;;;;9.37;7.57;;;;;;;2.76;100.00;100433.13;5022808;28;20447;-56
2022/12/20 10:09:42;;;;;;;17.67;5.43;;;;;;;2.80;100.00;100434.00;5023679;28;20479;-55
2022/12/20 10:12:26;;;;;;;18.13;4.97;;;;;;;2.78;100.00;100438.38;5026918;28;20953;-56
2022/12/20 10:15:17;;;;;;;26.67;4.20;;;;;;;2.79;100.00;100442.75;5035087;28;20439;-55
2022/12/20 10:17:58;;;;;;;10.30;5.70;;;;;;;2.84;100.00;100438.38;5036742;28;20489;-53
2022/12/20 10:20:33;;;;;;;5.20;4.80;;;;;;;2.85;100.00;100440.16;5028523;28;20498;-55
2022/12/20 10:23:16;;;;;;;5.47;5.00;;;;;;;2.89;100.00;100448.06;5034976;28;20446;-55
2022/12/20 10:25:43;;;;;;;11.10;7.53;;;;;;;2.91;100.00;100445.44;5022624;28;20819;-55
2022/12/20 10:28:14;;;;;;;12.93;7.80;;;;;;;2.90;100.00;100454.19;5028189;28;20494;-56
2022/12/20 10:30:41;;;;;;;12.30;7.60;;;;;;;2.95;100.00;100448.06;5029467;28;20452;-56
2022/12/20 10:33:20;;;;;;;8.30;6.43;;;;;;;2.95;100.00;100448.06;5025174;28;20942;-56
2022/12/20 10:35:49;;;;;;;7.27;5.50;;;;;;;3.02;100.00;100446.38;5022514;28;20454;-56
2022/12/20 10:38:17;;;;;;;20.23;11.93;;;;;;;3.12;100.00;100439.38;5023808;28;20515;-56
2022/12/20 10:40:57;;;;;;;11.53;5.70;;;;;;;3.12;100.00;100434.13;5029879;28;20997;-56
2022/12/20 10:44:01;;;;;;;7.97;5.57;;;;;;;3.38;100.00;100428.97;5004536;28;20440;-56
2022/12/20 10:46:48;;;;;;;9.87;7.23;;;;;;;3.47;100.00;100432.50;5023970;28;20472;-55
2022/12/20 10:49:32;;;;;;;4.40;4.10;;;;;;;3.32;100.00;100428.97;5024379;28;20555;-56
2022/12/20 10:52:10;;;;;;;14.93;9.30;;;;;;;3.30;100.00;100423.72;5022650;28;20818;-56
2022/12/20 10:54:42;;;;;;;14.33;9.10;;;;;;;3.28;100.00;100426.31;5028408;28;20448;-55
2022/12/20 10:57:17;;;;;;;9.40;5.87;;;;;;;3.22;100.00;100421.06;5022078;28;21096;-56
2022/12/20 10:59:59;;;;;;;12.37;6.33;;;;;;;3.21;100.00;100416.69;5021906;28;20465;-55
2022/12/20 11:02:38;;;;;;;11.17;6.27;;;;;;;3.22;100.00;100410.53;5026152;28;20479;-55
2022/12/20 11:05:08;;;;;;;8.73;4.97;;;;;;;3.24;100.00;100416.69;5028973;28;20455;-56
2022/12/20 11:07:36;;;;;;;7.50;6.33;;;;;;;3.22;100.00;100407.91;5027324;28;20448;-56
2022/12/20 11:10:22;;;;;;;13.17;6.37;;;;;;;3.22;100.00;100409.66;5021936;28;20475;-56
2022/12/20 11:12:56;;;;;;;29.27;5.77;;;;;;;3.32;100.00;100406.22;5021855;28;20448;-55
2022/12/20 11:15:26;;;;;;;8.27;6.40;;;;;;;3.28;100.00;100386.03;5044221;28;20442;-56
2022/12/20 11:18:09;;;;;;;15.40;8.67;;;;;;;3.30;100.00;100389.56;5031664;28;20503;-56
2022/12/20 11:20:46;;;;;;;9.57;8.60;;;;;;;3.32;100.00;100382.56;5027286;28;20448;-56
2022/12/20 11:23:31;;;;;;;9.93;4.70;;;;;;;3.33;100.00;100373.81;5024366;28;20450;-56
2022/12/20 11:26:08;;;;;;;16.63;8.00;;;;;;;3.37;100.00;100361.53;5020615;28;20455;-56
2022/12/20 11:29:12;;;;;;;21.50;9.03;;;;;;;3.38;100.00;100352.78;5022115;28;20469;-56
2022/12/20 11:31:58;;;;;;;24.60;6.93;;;;;;;3.42;100.00;100344.91;5024471;28;20562;-55
2022/12/20 11:35:03;;;;;;;18.37;8.47;;;;;;;3.42;100.00;100336.16;5027331;28;20495;-55
2022/12/20 11:37:53;;;;;;;23.97;4.70;;;;;;;3.43;100.00;100325.66;5016601;28;20514;-55
2022/12/20 11:40:29;;;;;;;8.80;7.03;;;;;;;3.60;100.00;100327.41;5027020;28;20965;-55
2022/12/20 11:43:18;;;;;;;6.93;5.67;;;;;;;3.59;100.00;100333.56;5024028;28;20980;-56
2022/12/20 11:46:24;;;;;;;13.63;6.57;;;;;;;3.62;100.00;100323.91;5027669;28;20954;-56
2022/12/20 11:49:15;;;;;;;9.67;5.57;;;;;;;3.60;100.00;100322.16;5027283;28;20464;-56